Kezdőlap
METAR-TAF:

METAR-TAF

Repülőterek :

Maple Lake Municipal Airport

Maple Lake, Minnesota, Amerikai Egyesült Államok

földrajzi szélesség: 45-14-10N, földrajzi hosszúság: 093-59-08W, magasság: 313 m

Jelenlegi meteorológiai megfigyelések

A jelentés 18 perccel ezelõtt készült, 07:35 UTC
Kelet-északkeleti szél 8 kt
Hőmérséklet 17°C
Páratartalom 88%
Légköri nyomás 1008 hPa
Látótávolság: 16.1 km
Szórványos felhőzet 1900 lábon
Szakadozott felhőzet 4100 lábon
Borult 9500 lábon
esõ

METAR: KMGG 210735Z AUTO 07008KT 10SM RA SCT019 BKN041 OVC095 17/15 A2978 RMK AO2 LTG DSNT E THRU SW P0019 T01680152

Idő: 02:53 (07:53 UTC)


TAF: hiányzik

Meteorológiai megfigyelések és előrejelzések több, mint 4000 repülőtéren (METAR és TAF jelentéseket).

A térképen piros és sárga pontok jelzik az elérhető meteorológiai állomásokat.

Mozgassa az egeret a pont fölött, hogy megjelenjen az állomás neve.

Azután kattintson az időjárási megfigyelések és előrejelzések megtekintéséhez.

A térkép megváltoztatása: kattintson a fekete keresztel jelölt zöld gombra ráközelítéshez, a vonallal jelölt zöld gombra távolításhoz, vagy a zöld nyilakra a szomszédos térképek eléréséhez.


METAR-TAF: